sensor_id;sensor_type;location;lat;lon;timestamp;P1;durP1;ratioP1;P2;durP2;ratioP2
55148;SDS011;49539;48.160;11.530;2023-07-29T00:01:07;7.85;;;3.13;;
55148;SDS011;49539;48.160;11.530;2023-07-29T00:03:33;5.53;;;3.10;;
55148;SDS011;49539;48.160;11.530;2023-07-29T00:05:59;5.53;;;2.58;;
55148;SDS011;49539;48.160;11.530;2023-07-29T00:08:25;5.68;;;3.00;;
55148;SDS011;49539;48.160;11.530;2023-07-29T00:10:50;6.80;;;3.50;;
55148;SDS011;49539;48.160;11.530;2023-07-29T00:13:15;6.18;;;2.75;;
55148;SDS011;49539;48.160;11.530;2023-07-29T00:15:41;4.20;;;2.53;;
55148;SDS011;49539;48.160;11.530;2023-07-29T00:18:06;4.18;;;2.92;;
55148;SDS011;49539;48.160;11.530;2023-07-29T00:20:32;6.18;;;2.85;;
55148;SDS011;49539;48.160;11.530;2023-07-29T00:22:57;5.15;;;3.05;;
55148;SDS011;49539;48.160;11.530;2023-07-29T00:25:23;10.15;;;3.60;;
55148;SDS011;49539;48.160;11.530;2023-07-29T00:27:48;5.53;;;2.25;;
55148;SDS011;49539;48.160;11.530;2023-07-29T00:30:14;5.07;;;2.90;;
55148;SDS011;49539;48.160;11.530;2023-07-29T00:32:39;5.15;;;2.65;;
55148;SDS011;49539;48.160;11.530;2023-07-29T00:35:05;5.18;;;3.17;;
55148;SDS011;49539;48.160;11.530;2023-07-29T00:37:31;3.72;;;2.53;;
55148;SDS011;49539;48.160;11.530;2023-07-29T00:39:56;5.53;;;2.58;;
55148;SDS011;49539;48.160;11.530;2023-07-29T00:42:21;5.35;;;2.80;;
55148;SDS011;49539;48.160;11.530;2023-07-29T00:44:47;5.03;;;2.92;;
55148;SDS011;49539;48.160;11.530;2023-07-29T00:47:12;4.60;;;2.80;;
55148;SDS011;49539;48.160;11.530;2023-07-29T00:49:39;4.80;;;2.78;;
55148;SDS011;49539;48.160;11.530;2023-07-29T00:52:04;4.53;;;2.60;;
55148;SDS011;49539;48.160;11.530;2023-07-29T00:54:29;4.55;;;2.25;;
55148;SDS011;49539;48.160;11.530;2023-07-29T00:56:55;4.78;;;2.40;;
55148;SDS011;49539;48.160;11.530;2023-07-29T00:59:20;4.05;;;2.50;;
55148;SDS011;49539;48.160;11.530;2023-07-29T01:01:46;4.70;;;2.50;;
55148;SDS011;49539;48.160;11.530;2023-07-29T01:04:11;4.57;;;2.53;;
55148;SDS011;49539;48.160;11.530;2023-07-29T01:09:07;4.68;;;2.45;;
55148;SDS011;49539;48.160;11.530;2023-07-29T01:11:49;3.75;;;2.30;;
55148;SDS011;49539;48.160;11.530;2023-07-29T01:17:00;4.22;;;2.53;;
55148;SDS011;49539;48.160;11.530;2023-07-29T01:21:54;4.90;;;2.53;;
55148;SDS011;49539;48.160;11.530;2023-07-29T01:24:20;3.25;;;2.17;;
55148;SDS011;49539;48.160;11.530;2023-07-29T01:26:45;4.87;;;2.30;;
55148;SDS011;49539;48.160;11.530;2023-07-29T01:29:10;5.20;;;2.20;;
55148;SDS011;49539;48.160;11.530;2023-07-29T01:31:38;6.25;;;2.60;;
55148;SDS011;49539;48.160;11.530;2023-07-29T01:34:13;5.05;;;2.50;;
55148;SDS011;49539;48.160;11.530;2023-07-29T01:36:39;6.97;;;2.80;;
55148;SDS011;49539;48.160;11.530;2023-07-29T01:39:07;4.85;;;2.50;;
55148;SDS011;49539;48.160;11.530;2023-07-29T01:41:33;4.55;;;2.25;;
55148;SDS011;49539;48.160;11.530;2023-07-29T01:43:59;4.35;;;2.65;;
55148;SDS011;49539;48.160;11.530;2023-07-29T01:46:25;4.57;;;2.20;;
55148;SDS011;49539;48.160;11.530;2023-07-29T01:48:50;3.85;;;2.35;;
55148;SDS011;49539;48.160;11.530;2023-07-29T01:51:15;6.07;;;2.50;;
55148;SDS011;49539;48.160;11.530;2023-07-29T01:53:40;4.43;;;1.90;;
55148;SDS011;49539;48.160;11.530;2023-07-29T01:56:06;2.73;;;1.80;;
55148;SDS011;49539;48.160;11.530;2023-07-29T01:58:31;3.95;;;2.50;;
55148;SDS011;49539;48.160;11.530;2023-07-29T02:00:56;4.60;;;2.60;;
55148;SDS011;49539;48.160;11.530;2023-07-29T02:03:22;4.03;;;2.30;;
55148;SDS011;49539;48.160;11.530;2023-07-29T02:05:47;3.85;;;2.42;;
55148;SDS011;49539;48.160;11.530;2023-07-29T02:08:17;3.58;;;2.10;;
55148;SDS011;49539;48.160;11.530;2023-07-29T02:10:42;3.50;;;2.33;;
55148;SDS011;49539;48.160;11.530;2023-07-29T02:13:10;5.07;;;2.75;;
55148;SDS011;49539;48.160;11.530;2023-07-29T02:15:35;4.60;;;2.50;;
55148;SDS011;49539;48.160;11.530;2023-07-29T02:18:00;4.38;;;2.30;;
55148;SDS011;49539;48.160;11.530;2023-07-29T02:20:27;3.45;;;2.15;;
55148;SDS011;49539;48.160;11.530;2023-07-29T02:22:52;4.95;;;2.65;;
55148;SDS011;49539;48.160;11.530;2023-07-29T02:25:17;3.88;;;2.08;;
55148;SDS011;49539;48.160;11.530;2023-07-29T02:27:43;10.65;;;2.92;;
55148;SDS011;49539;48.160;11.530;2023-07-29T02:30:08;4.47;;;2.60;;
55148;SDS011;49539;48.160;11.530;2023-07-29T02:32:34;3.75;;;2.10;;
55148;SDS011;49539;48.160;11.530;2023-07-29T02:35:00;4.43;;;2.47;;
55148;SDS011;49539;48.160;11.530;2023-07-29T02:37:25;4.65;;;2.20;;
55148;SDS011;49539;48.160;11.530;2023-07-29T02:39:51;3.25;;;2.00;;
55148;SDS011;49539;48.160;11.530;2023-07-29T02:42:16;5.70;;;2.97;;
55148;SDS011;49539;48.160;11.530;2023-07-29T02:44:41;4.90;;;2.10;;
55148;SDS011;49539;48.160;11.530;2023-07-29T02:47:06;3.17;;;2.25;;
55148;SDS011;49539;48.160;11.530;2023-07-29T02:49:32;3.37;;;2.10;;
55148;SDS011;49539;48.160;11.530;2023-07-29T02:51:57;6.15;;;2.33;;
55148;SDS011;49539;48.160;11.530;2023-07-29T02:54:22;3.38;;;2.10;;
55148;SDS011;49539;48.160;11.530;2023-07-29T02:56:49;3.60;;;1.98;;
55148;SDS011;49539;48.160;11.530;2023-07-29T02:59:14;3.47;;;2.30;;
55148;SDS011;49539;48.160;11.530;2023-07-29T03:01:39;4.83;;;2.67;;
55148;SDS011;49539;48.160;11.530;2023-07-29T03:04:05;2.83;;;1.77;;
55148;SDS011;49539;48.160;11.530;2023-07-29T03:06:30;3.30;;;1.90;;
55148;SDS011;49539;48.160;11.530;2023-07-29T03:08:55;3.58;;;2.25;;
55148;SDS011;49539;48.160;11.530;2023-07-29T03:11:20;5.40;;;2.70;;
55148;SDS011;49539;48.160;11.530;2023-07-29T03:13:46;4.40;;;2.50;;
55148;SDS011;49539;48.160;11.530;2023-07-29T03:16:15;4.05;;;2.40;;
55148;SDS011;49539;48.160;11.530;2023-07-29T03:18:41;3.78;;;2.58;;
55148;SDS011;49539;48.160;11.530;2023-07-29T03:21:07;6.72;;;2.75;;
55148;SDS011;49539;48.160;11.530;2023-07-29T03:23:34;3.45;;;2.30;;
55148;SDS011;49539;48.160;11.530;2023-07-29T03:25:59;4.65;;;2.47;;
55148;SDS011;49539;48.160;11.530;2023-07-29T03:28:26;4.18;;;2.80;;
55148;SDS011;49539;48.160;11.530;2023-07-29T03:30:52;4.70;;;2.47;;
55148;SDS011;49539;48.160;11.530;2023-07-29T03:33:18;3.63;;;2.28;;
55148;SDS011;49539;48.160;11.530;2023-07-29T03:35:43;2.53;;;1.70;;
55148;SDS011;49539;48.160;11.530;2023-07-29T03:38:10;5.00;;;2.22;;
55148;SDS011;49539;48.160;11.530;2023-07-29T03:40:35;5.13;;;2.85;;
55148;SDS011;49539;48.160;11.530;2023-07-29T03:43:01;2.53;;;1.77;;
55148;SDS011;49539;48.160;11.530;2023-07-29T03:45:27;4.72;;;2.30;;
55148;SDS011;49539;48.160;11.530;2023-07-29T03:47:52;4.07;;;2.33;;
55148;SDS011;49539;48.160;11.530;2023-07-29T03:50:17;3.85;;;1.95;;
55148;SDS011;49539;48.160;11.530;2023-07-29T03:55:12;3.10;;;1.80;;
55148;SDS011;49539;48.160;11.530;2023-07-29T03:57:37;5.13;;;1.83;;
55148;SDS011;49539;48.160;11.530;2023-07-29T04:00:03;4.43;;;2.47;;
55148;SDS011;49539;48.160;11.530;2023-07-29T04:02:28;3.78;;;2.20;;
55148;SDS011;49539;48.160;11.530;2023-07-29T04:04:54;2.60;;;1.43;;
55148;SDS011;49539;48.160;11.530;2023-07-29T04:07:19;2.80;;;1.70;;
55148;SDS011;49539;48.160;11.530;2023-07-29T04:09:44;2.67;;;1.52;;
55148;SDS011;49539;48.160;11.530;2023-07-29T04:12:10;2.78;;;1.67;;
55148;SDS011;49539;48.160;11.530;2023-07-29T04:14:35;4.72;;;2.03;;
55148;SDS011;49539;48.160;11.530;2023-07-29T04:17:01;3.35;;;1.98;;
55148;SDS011;49539;48.160;11.530;2023-07-29T04:19:26;3.63;;;1.88;;
55148;SDS011;49539;48.160;11.530;2023-07-29T04:21:51;3.53;;;1.98;;
55148;SDS011;49539;48.160;11.530;2023-07-29T04:24:17;3.13;;;1.90;;
55148;SDS011;49539;48.160;11.530;2023-07-29T04:26:42;3.38;;;2.22;;
55148;SDS011;49539;48.160;11.530;2023-07-29T04:29:07;3.67;;;1.92;;
55148;SDS011;49539;48.160;11.530;2023-07-29T04:31:33;3.60;;;1.90;;
55148;SDS011;49539;48.160;11.530;2023-07-29T04:33:58;4.57;;;2.15;;
55148;SDS011;49539;48.160;11.530;2023-07-29T04:36:23;3.63;;;1.80;;
55148;SDS011;49539;48.160;11.530;2023-07-29T04:38:49;9.18;;;1.77;;
55148;SDS011;49539;48.160;11.530;2023-07-29T04:41:14;5.00;;;2.07;;
55148;SDS011;49539;48.160;11.530;2023-07-29T04:43:39;3.80;;;1.80;;
55148;SDS011;49539;48.160;11.530;2023-07-29T04:46:07;3.47;;;1.90;;
55148;SDS011;49539;48.160;11.530;2023-07-29T04:48:36;3.45;;;2.00;;
55148;SDS011;49539;48.160;11.530;2023-07-29T04:51:01;3.37;;;2.10;;
55148;SDS011;49539;48.160;11.530;2023-07-29T04:53:26;3.13;;;1.92;;
55148;SDS011;49539;48.160;11.530;2023-07-29T04:55:51;2.80;;;1.80;;
55148;SDS011;49539;48.160;11.530;2023-07-29T04:58:17;3.37;;;1.90;;
55148;SDS011;49539;48.160;11.530;2023-07-29T05:00:43;4.15;;;2.13;;
55148;SDS011;49539;48.160;11.530;2023-07-29T05:03:08;3.38;;;1.90;;
55148;SDS011;49539;48.160;11.530;2023-07-29T05:05:33;3.57;;;1.60;;
55148;SDS011;49539;48.160;11.530;2023-07-29T05:07:59;3.92;;;2.03;;
55148;SDS011;49539;48.160;11.530;2023-07-29T05:10:24;3.03;;;1.88;;
55148;SDS011;49539;48.160;11.530;2023-07-29T05:12:49;4.32;;;2.08;;
55148;SDS011;49539;48.160;11.530;2023-07-29T05:15:15;1.90;;;1.25;;
55148;SDS011;49539;48.160;11.530;2023-07-29T05:17:40;3.83;;;1.80;;
55148;SDS011;49539;48.160;11.530;2023-07-29T05:20:06;2.70;;;1.30;;
55148;SDS011;49539;48.160;11.530;2023-07-29T05:22:32;3.78;;;1.80;;
55148;SDS011;49539;48.160;11.530;2023-07-29T05:24:57;3.35;;;1.45;;
55148;SDS011;49539;48.160;11.530;2023-07-29T05:27:22;3.30;;;1.60;;
55148;SDS011;49539;48.160;11.530;2023-07-29T05:29:47;3.53;;;1.83;;
55148;SDS011;49539;48.160;11.530;2023-07-29T05:32:13;2.17;;;1.20;;
55148;SDS011;49539;48.160;11.530;2023-07-29T05:34:38;4.68;;;1.90;;
55148;SDS011;49539;48.160;11.530;2023-07-29T05:37:04;2.78;;;1.45;;
55148;SDS011;49539;48.160;11.530;2023-07-29T05:39:29;2.47;;;1.42;;
55148;SDS011;49539;48.160;11.530;2023-07-29T05:41:55;3.22;;;1.60;;
55148;SDS011;49539;48.160;11.530;2023-07-29T05:44:20;2.87;;;1.43;;
55148;SDS011;49539;48.160;11.530;2023-07-29T05:46:45;3.00;;;1.30;;
55148;SDS011;49539;48.160;11.530;2023-07-29T05:49:10;2.83;;;1.70;;
55148;SDS011;49539;48.160;11.530;2023-07-29T05:51:36;2.70;;;1.33;;
55148;SDS011;49539;48.160;11.530;2023-07-29T05:54:01;2.37;;;1.60;;
55148;SDS011;49539;48.160;11.530;2023-07-29T05:56:26;4.40;;;1.30;;
55148;SDS011;49539;48.160;11.530;2023-07-29T05:58:51;3.30;;;1.53;;
55148;SDS011;49539;48.160;11.530;2023-07-29T06:01:17;3.08;;;1.73;;
55148;SDS011;49539;48.160;11.530;2023-07-29T06:03:46;5.35;;;1.65;;
55148;SDS011;49539;48.160;11.530;2023-07-29T06:06:11;2.15;;;1.23;;
55148;SDS011;49539;48.160;11.530;2023-07-29T06:08:37;3.28;;;1.52;;
55148;SDS011;49539;48.160;11.530;2023-07-29T06:11:02;2.45;;;1.25;;
55148;SDS011;49539;48.160;11.530;2023-07-29T06:13:27;3.67;;;1.40;;
55148;SDS011;49539;48.160;11.530;2023-07-29T06:15:53;5.32;;;1.90;;
55148;SDS011;49539;48.160;11.530;2023-07-29T06:18:19;3.60;;;1.40;;
55148;SDS011;49539;48.160;11.530;2023-07-29T06:20:45;3.28;;;1.70;;
55148;SDS011;49539;48.160;11.530;2023-07-29T06:23:10;3.43;;;1.30;;
55148;SDS011;49539;48.160;11.530;2023-07-29T06:25:36;2.30;;;1.33;;
55148;SDS011;49539;48.160;11.530;2023-07-29T06:28:02;4.63;;;1.73;;
55148;SDS011;49539;48.160;11.530;2023-07-29T06:30:27;2.30;;;1.38;;
55148;SDS011;49539;48.160;11.530;2023-07-29T06:32:52;2.77;;;1.47;;
55148;SDS011;49539;48.160;11.530;2023-07-29T06:35:17;3.63;;;1.90;;
55148;SDS011;49539;48.160;11.530;2023-07-29T06:37:43;2.10;;;1.30;;
55148;SDS011;49539;48.160;11.530;2023-07-29T06:40:08;2.70;;;1.40;;
55148;SDS011;49539;48.160;11.530;2023-07-29T06:42:34;2.40;;;1.48;;
55148;SDS011;49539;48.160;11.530;2023-07-29T06:44:59;4.35;;;1.60;;
55148;SDS011;49539;48.160;11.530;2023-07-29T06:47:24;3.33;;;1.60;;
55148;SDS011;49539;48.160;11.530;2023-07-29T06:49:50;4.05;;;1.23;;
55148;SDS011;49539;48.160;11.530;2023-07-29T06:52:15;2.20;;;1.30;;
55148;SDS011;49539;48.160;11.530;2023-07-29T06:54:41;12.10;;;2.40;;
55148;SDS011;49539;48.160;11.530;2023-07-29T06:57:06;4.38;;;1.88;;
55148;SDS011;49539;48.160;11.530;2023-07-29T06:59:31;4.47;;;1.88;;
55148;SDS011;49539;48.160;11.530;2023-07-29T07:01:57;3.92;;;2.00;;
55148;SDS011;49539;48.160;11.530;2023-07-29T07:04:22;5.40;;;2.47;;
55148;SDS011;49539;48.160;11.530;2023-07-29T07:06:48;3.08;;;1.77;;
55148;SDS011;49539;48.160;11.530;2023-07-29T07:09:13;6.13;;;2.05;;
55148;SDS011;49539;48.160;11.530;2023-07-29T07:11:39;3.78;;;1.90;;
55148;SDS011;49539;48.160;11.530;2023-07-29T07:14:04;4.43;;;2.40;;
55148;SDS011;49539;48.160;11.530;2023-07-29T07:16:29;5.22;;;1.92;;
55148;SDS011;49539;48.160;11.530;2023-07-29T07:18:55;4.47;;;2.28;;
55148;SDS011;49539;48.160;11.530;2023-07-29T07:21:20;4.65;;;2.20;;
55148;SDS011;49539;48.160;11.530;2023-07-29T07:23:46;6.37;;;3.03;;
55148;SDS011;49539;48.160;11.530;2023-07-29T07:26:11;5.03;;;2.60;;
55148;SDS011;49539;48.160;11.530;2023-07-29T07:28:36;3.50;;;2.13;;
55148;SDS011;49539;48.160;11.530;2023-07-29T07:31:01;6.37;;;2.23;;
55148;SDS011;49539;48.160;11.530;2023-07-29T07:33:27;3.58;;;2.38;;
55148;SDS011;49539;48.160;11.530;2023-07-29T07:35:52;6.30;;;2.87;;
55148;SDS011;49539;48.160;11.530;2023-07-29T07:38:17;6.07;;;2.55;;
55148;SDS011;49539;48.160;11.530;2023-07-29T07:40:43;4.68;;;2.53;;
55148;SDS011;49539;48.160;11.530;2023-07-29T07:43:08;5.38;;;2.28;;
55148;SDS011;49539;48.160;11.530;2023-07-29T07:45:33;4.15;;;2.00;;
55148;SDS011;49539;48.160;11.530;2023-07-29T07:47:58;5.27;;;2.73;;
55148;SDS011;49539;48.160;11.530;2023-07-29T07:50:24;5.43;;;2.60;;
55148;SDS011;49539;48.160;11.530;2023-07-29T07:52:49;3.47;;;2.33;;
55148;SDS011;49539;48.160;11.530;2023-07-29T07:55:15;2.70;;;2.10;;
55148;SDS011;49539;48.160;11.530;2023-07-29T07:57:40;5.63;;;2.20;;
55148;SDS011;49539;48.160;11.530;2023-07-29T08:00:05;3.97;;;2.20;;
55148;SDS011;49539;48.160;11.530;2023-07-29T08:02:31;4.00;;;2.13;;
55148;SDS011;49539;48.160;11.530;2023-07-29T08:04:56;4.65;;;2.28;;
55148;SDS011;49539;48.160;11.530;2023-07-29T08:07:21;4.57;;;2.40;;
55148;SDS011;49539;48.160;11.530;2023-07-29T08:09:47;4.90;;;2.50;;
55148;SDS011;49539;48.160;11.530;2023-07-29T08:12:13;5.18;;;2.47;;
55148;SDS011;49539;48.160;11.530;2023-07-29T08:14:38;4.25;;;2.42;;
55148;SDS011;49539;48.160;11.530;2023-07-29T08:17:03;5.28;;;2.55;;
55148;SDS011;49539;48.160;11.530;2023-07-29T08:19:29;7.90;;;2.20;;
55148;SDS011;49539;48.160;11.530;2023-07-29T08:21:54;4.13;;;2.27;;
55148;SDS011;49539;48.160;11.530;2023-07-29T08:24:19;4.22;;;2.38;;
55148;SDS011;49539;48.160;11.530;2023-07-29T08:26:45;4.63;;;2.22;;
55148;SDS011;49539;48.160;11.530;2023-07-29T08:29:10;5.15;;;2.30;;
55148;SDS011;49539;48.160;11.530;2023-07-29T08:31:36;4.30;;;2.30;;
55148;SDS011;49539;48.160;11.530;2023-07-29T08:34:01;3.80;;;2.17;;
55148;SDS011;49539;48.160;11.530;2023-07-29T08:36:26;4.07;;;1.98;;
55148;SDS011;49539;48.160;11.530;2023-07-29T08:38:52;3.87;;;2.33;;
55148;SDS011;49539;48.160;11.530;2023-07-29T08:41:37;3.40;;;2.07;;
55148;SDS011;49539;48.160;11.530;2023-07-29T08:44:18;6.32;;;2.60;;
55148;SDS011;49539;48.160;11.530;2023-07-29T08:46:45;3.33;;;2.00;;
55148;SDS011;49539;48.160;11.530;2023-07-29T08:49:14;3.38;;;1.90;;
55148;SDS011;49539;48.160;11.530;2023-07-29T08:51:41;4.00;;;2.22;;
55148;SDS011;49539;48.160;11.530;2023-07-29T08:54:07;4.70;;;2.20;;
55148;SDS011;49539;48.160;11.530;2023-07-29T08:56:34;3.97;;;2.25;;
55148;SDS011;49539;48.160;11.530;2023-07-29T08:58:59;3.38;;;2.22;;
55148;SDS011;49539;48.160;11.530;2023-07-29T09:01:27;3.90;;;2.10;;
55148;SDS011;49539;48.160;11.530;2023-07-29T09:03:53;4.60;;;2.42;;
55148;SDS011;49539;48.160;11.530;2023-07-29T09:06:18;4.68;;;2.55;;
55148;SDS011;49539;48.160;11.530;2023-07-29T09:08:44;5.47;;;2.67;;
55148;SDS011;49539;48.160;11.530;2023-07-29T09:11:09;3.60;;;2.03;;
55148;SDS011;49539;48.160;11.530;2023-07-29T09:13:35;4.63;;;2.38;;
55148;SDS011;49539;48.160;11.530;2023-07-29T09:16:00;4.20;;;2.00;;
55148;SDS011;49539;48.160;11.530;2023-07-29T09:18:26;3.60;;;2.40;;
55148;SDS011;49539;48.160;11.530;2023-07-29T09:20:52;4.07;;;2.35;;
55148;SDS011;49539;48.160;11.530;2023-07-29T09:23:18;4.40;;;2.03;;
55148;SDS011;49539;48.160;11.530;2023-07-29T09:25:43;4.93;;;2.53;;
55148;SDS011;49539;48.160;11.530;2023-07-29T09:28:12;4.95;;;2.60;;
55148;SDS011;49539;48.160;11.530;2023-07-29T09:30:38;3.78;;;2.00;;
55148;SDS011;49539;48.160;11.530;2023-07-29T09:33:04;5.35;;;2.63;;
55148;SDS011;49539;48.160;11.530;2023-07-29T09:35:30;4.03;;;2.27;;
55148;SDS011;49539;48.160;11.530;2023-07-29T09:37:57;4.75;;;2.30;;
55148;SDS011;49539;48.160;11.530;2023-07-29T09:40:22;3.50;;;2.28;;
55148;SDS011;49539;48.160;11.530;2023-07-29T09:42:51;3.13;;;1.98;;
55148;SDS011;49539;48.160;11.530;2023-07-29T09:45:20;4.63;;;2.47;;
55148;SDS011;49539;48.160;11.530;2023-07-29T09:47:46;3.40;;;2.20;;
55148;SDS011;49539;48.160;11.530;2023-07-29T09:50:11;4.15;;;2.22;;
55148;SDS011;49539;48.160;11.530;2023-07-29T09:52:37;4.50;;;1.97;;
55148;SDS011;49539;48.160;11.530;2023-07-29T09:55:02;4.55;;;2.88;;
55148;SDS011;49539;48.160;11.530;2023-07-29T09:57:28;4.72;;;2.50;;
55148;SDS011;49539;48.160;11.530;2023-07-29T09:59:54;5.40;;;2.60;;
55148;SDS011;49539;48.160;11.530;2023-07-29T10:02:20;5.88;;;2.50;;
55148;SDS011;49539;48.160;11.530;2023-07-29T10:04:46;4.22;;;2.20;;
55148;SDS011;49539;48.160;11.530;2023-07-29T10:07:12;5.18;;;1.88;;
55148;SDS011;49539;48.160;11.530;2023-07-29T10:09:39;5.25;;;2.75;;
55148;SDS011;49539;48.160;11.530;2023-07-29T10:12:05;7.90;;;2.88;;
55148;SDS011;49539;48.160;11.530;2023-07-29T10:14:31;4.13;;;2.58;;
55148;SDS011;49539;48.160;11.530;2023-07-29T10:16:56;3.50;;;1.92;;
55148;SDS011;49539;48.160;11.530;2023-07-29T10:19:22;4.18;;;2.47;;
55148;SDS011;49539;48.160;11.530;2023-07-29T10:21:48;4.03;;;2.17;;
55148;SDS011;49539;48.160;11.530;2023-07-29T10:24:15;4.88;;;2.53;;
55148;SDS011;49539;48.160;11.530;2023-07-29T10:26:41;3.83;;;2.25;;
55148;SDS011;49539;48.160;11.530;2023-07-29T10:29:08;4.50;;;2.72;;
55148;SDS011;49539;48.160;11.530;2023-07-29T10:31:35;4.53;;;2.35;;
55148;SDS011;49539;48.160;11.530;2023-07-29T10:34:01;3.90;;;2.22;;
55148;SDS011;49539;48.160;11.530;2023-07-29T10:36:27;3.05;;;2.10;;
55148;SDS011;49539;48.160;11.530;2023-07-29T10:38:52;4.72;;;2.35;;
55148;SDS011;49539;48.160;11.530;2023-07-29T10:41:18;3.65;;;2.50;;
55148;SDS011;49539;48.160;11.530;2023-07-29T10:43:43;3.58;;;2.35;;
55148;SDS011;49539;48.160;11.530;2023-07-29T10:48:44;3.67;;;1.70;;
55148;SDS011;49539;48.160;11.530;2023-07-29T10:51:28;4.55;;;2.30;;
55148;SDS011;49539;48.160;11.530;2023-07-29T10:54:01;3.78;;;2.15;;
55148;SDS011;49539;48.160;11.530;2023-07-29T10:56:28;3.53;;;2.30;;
55148;SDS011;49539;48.160;11.530;2023-07-29T11:01:53;4.13;;;2.50;;
55148;SDS011;49539;48.160;11.530;2023-07-29T11:09:42;5.28;;;2.42;;
55148;SDS011;49539;48.160;11.530;2023-07-29T11:14:52;4.18;;;2.05;;
55148;SDS011;49539;48.160;11.530;2023-07-29T11:17:18;2.72;;;1.42;;
55148;SDS011;49539;48.160;11.530;2023-07-29T11:19:44;2.55;;;1.48;;
55148;SDS011;49539;48.160;11.530;2023-07-29T11:22:09;6.88;;;1.10;;
55148;SDS011;49539;48.160;11.530;2023-07-29T11:24:35;1.90;;;1.15;;
55148;SDS011;49539;48.160;11.530;2023-07-29T11:27:00;1.88;;;1.25;;
55148;SDS011;49539;48.160;11.530;2023-07-29T11:29:26;2.67;;;1.30;;
55148;SDS011;49539;48.160;11.530;2023-07-29T11:31:51;1.50;;;1.30;;
55148;SDS011;49539;48.160;11.530;2023-07-29T11:34:16;2.90;;;1.52;;
55148;SDS011;49539;48.160;11.530;2023-07-29T11:36:45;4.40;;;1.60;;
55148;SDS011;49539;48.160;11.530;2023-07-29T11:39:11;3.17;;;1.40;;
55148;SDS011;49539;48.160;11.530;2023-07-29T11:41:37;1.70;;;1.30;;
55148;SDS011;49539;48.160;11.530;2023-07-29T11:44:10;4.05;;;1.67;;
55148;SDS011;49539;48.160;11.530;2023-07-29T11:46:41;2.70;;;1.60;;
55148;SDS011;49539;48.160;11.530;2023-07-29T11:49:07;3.45;;;1.40;;
55148;SDS011;49539;48.160;11.530;2023-07-29T11:51:33;2.20;;;1.33;;
55148;SDS011;49539;48.160;11.530;2023-07-29T11:53:59;2.65;;;1.80;;
55148;SDS011;49539;48.160;11.530;2023-07-29T11:56:25;2.53;;;1.63;;
55148;SDS011;49539;48.160;11.530;2023-07-29T11:58:50;3.33;;;1.80;;
55148;SDS011;49539;48.160;11.530;2023-07-29T12:01:16;4.47;;;1.60;;
55148;SDS011;49539;48.160;11.530;2023-07-29T12:03:41;3.88;;;2.00;;
55148;SDS011;49539;48.160;11.530;2023-07-29T12:06:08;2.70;;;1.65;;
55148;SDS011;49539;48.160;11.530;2023-07-29T12:08:34;3.38;;;1.88;;
55148;SDS011;49539;48.160;11.530;2023-07-29T12:11:00;2.50;;;1.45;;
55148;SDS011;49539;48.160;11.530;2023-07-29T12:13:25;3.90;;;2.20;;
55148;SDS011;49539;48.160;11.530;2023-07-29T12:15:51;3.05;;;1.65;;
55148;SDS011;49539;48.160;11.530;2023-07-29T12:18:16;5.70;;;1.50;;
55148;SDS011;49539;48.160;11.530;2023-07-29T12:20:42;3.03;;;1.73;;
55148;SDS011;49539;48.160;11.530;2023-07-29T12:23:08;3.70;;;2.17;;
55148;SDS011;49539;48.160;11.530;2023-07-29T12:25:34;2.50;;;1.67;;
55148;SDS011;49539;48.160;11.530;2023-07-29T12:28:03;3.28;;;1.88;;
55148;SDS011;49539;48.160;11.530;2023-07-29T12:30:28;3.70;;;1.88;;
55148;SDS011;49539;48.160;11.530;2023-07-29T12:32:53;4.43;;;2.00;;
55148;SDS011;49539;48.160;11.530;2023-07-29T12:35:19;3.47;;;1.77;;
55148;SDS011;49539;48.160;11.530;2023-07-29T12:37:44;2.42;;;1.52;;
55148;SDS011;49539;48.160;11.530;2023-07-29T12:42:48;3.90;;;1.90;;
55148;SDS011;49539;48.160;11.530;2023-07-29T12:45:14;3.42;;;2.00;;
55148;SDS011;49539;48.160;11.530;2023-07-29T12:47:40;5.38;;;2.58;;
55148;SDS011;49539;48.160;11.530;2023-07-29T12:50:06;3.05;;;2.10;;
55148;SDS011;49539;48.160;11.530;2023-07-29T12:52:33;4.70;;;2.45;;
55148;SDS011;49539;48.160;11.530;2023-07-29T12:54:58;5.68;;;2.78;;
55148;SDS011;49539;48.160;11.530;2023-07-29T12:57:23;3.23;;;1.60;;
55148;SDS011;49539;48.160;11.530;2023-07-29T12:59:49;3.03;;;1.95;;
55148;SDS011;49539;48.160;11.530;2023-07-29T13:02:14;5.78;;;2.45;;
55148;SDS011;49539;48.160;11.530;2023-07-29T13:04:40;4.90;;;2.37;;
55148;SDS011;49539;48.160;11.530;2023-07-29T13:07:06;8.45;;;2.60;;
55148;SDS011;49539;48.160;11.530;2023-07-29T13:09:32;6.63;;;2.88;;
55148;SDS011;49539;48.160;11.530;2023-07-29T13:11:57;4.80;;;2.40;;
55148;SDS011;49539;48.160;11.530;2023-07-29T13:14:24;3.92;;;2.63;;
55148;SDS011;49539;48.160;11.530;2023-07-29T13:16:51;4.65;;;2.70;;
55148;SDS011;49539;48.160;11.530;2023-07-29T13:19:16;5.97;;;3.00;;
55148;SDS011;49539;48.160;11.530;2023-07-29T13:21:43;7.15;;;3.15;;
55148;SDS011;49539;48.160;11.530;2023-07-29T13:24:12;5.60;;;2.95;;
55148;SDS011;49539;48.160;11.530;2023-07-29T13:26:37;4.93;;;3.58;;
55148;SDS011;49539;48.160;11.530;2023-07-29T13:29:03;6.45;;;3.05;;
55148;SDS011;49539;48.160;11.530;2023-07-29T13:31:29;5.93;;;3.22;;
55148;SDS011;49539;48.160;11.530;2023-07-29T13:33:55;5.90;;;3.35;;
55148;SDS011;49539;48.160;11.530;2023-07-29T13:36:21;7.90;;;3.97;;
55148;SDS011;49539;48.160;11.530;2023-07-29T13:38:46;5.72;;;3.20;;
55148;SDS011;49539;48.160;11.530;2023-07-29T13:41:11;5.83;;;3.20;;
55148;SDS011;49539;48.160;11.530;2023-07-29T13:43:37;5.13;;;3.55;;
55148;SDS011;49539;48.160;11.530;2023-07-29T13:46:03;6.32;;;3.83;;
55148;SDS011;49539;48.160;11.530;2023-07-29T13:48:28;6.53;;;3.50;;
55148;SDS011;49539;48.160;11.530;2023-07-29T13:50:54;4.93;;;3.40;;
55148;SDS011;49539;48.160;11.530;2023-07-29T13:53:19;5.57;;;3.20;;
55148;SDS011;49539;48.160;11.530;2023-07-29T13:55:44;5.40;;;3.40;;
55148;SDS011;49539;48.160;11.530;2023-07-29T13:58:10;4.55;;;2.65;;
55148;SDS011;49539;48.160;11.530;2023-07-29T14:00:35;4.03;;;2.50;;
55148;SDS011;49539;48.160;11.530;2023-07-29T14:03:00;4.90;;;2.88;;
55148;SDS011;49539;48.160;11.530;2023-07-29T14:05:26;4.45;;;2.67;;
55148;SDS011;49539;48.160;11.530;2023-07-29T14:07:51;4.40;;;2.57;;
55148;SDS011;49539;48.160;11.530;2023-07-29T14:10:17;5.93;;;2.63;;
55148;SDS011;49539;48.160;11.530;2023-07-29T14:12:46;5.30;;;3.08;;
55148;SDS011;49539;48.160;11.530;2023-07-29T14:15:11;4.07;;;2.60;;
55148;SDS011;49539;48.160;11.530;2023-07-29T14:17:37;5.40;;;2.97;;
55148;SDS011;49539;48.160;11.530;2023-07-29T14:20:02;5.13;;;2.85;;
55148;SDS011;49539;48.160;11.530;2023-07-29T14:22:29;6.38;;;3.22;;
55148;SDS011;49539;48.160;11.530;2023-07-29T14:24:55;5.03;;;3.08;;
55148;SDS011;49539;48.160;11.530;2023-07-29T14:27:20;5.13;;;3.67;;
55148;SDS011;49539;48.160;11.530;2023-07-29T14:29:45;6.30;;;3.43;;
55148;SDS011;49539;48.160;11.530;2023-07-29T14:32:10;6.73;;;3.37;;
55148;SDS011;49539;48.160;11.530;2023-07-29T14:34:36;5.93;;;3.55;;
55148;SDS011;49539;48.160;11.530;2023-07-29T14:37:01;5.82;;;3.63;;
55148;SDS011;49539;48.160;11.530;2023-07-29T14:39:26;8.13;;;3.63;;
55148;SDS011;49539;48.160;11.530;2023-07-29T14:41:52;4.97;;;2.75;;
55148;SDS011;49539;48.160;11.530;2023-07-29T14:44:17;5.13;;;3.17;;
55148;SDS011;49539;48.160;11.530;2023-07-29T14:46:42;5.23;;;3.50;;
55148;SDS011;49539;48.160;11.530;2023-07-29T14:49:08;5.65;;;3.30;;
55148;SDS011;49539;48.160;11.530;2023-07-29T14:51:33;5.60;;;3.58;;